sensor_id;sensor_type;location;lat;lon;timestamp;temperature;humidity
8408;DHT22;4241;48.452;9.216;2022-10-16T00:00:32;15.60;99.90
8408;DHT22;4241;48.452;9.216;2022-10-16T00:02:59;15.80;99.90
8408;DHT22;4241;48.452;9.216;2022-10-16T00:05:26;15.70;99.90
8408;DHT22;4241;48.452;9.216;2022-10-16T00:07:52;15.60;99.90
8408;DHT22;4241;48.452;9.216;2022-10-16T00:10:19;15.60;99.90
8408;DHT22;4241;48.452;9.216;2022-10-16T00:12:46;15.50;99.90
8408;DHT22;4241;48.452;9.216;2022-10-16T00:15:15;15.50;99.90
8408;DHT22;4241;48.452;9.216;2022-10-16T00:17:42;15.50;99.90
8408;DHT22;4241;48.452;9.216;2022-10-16T00:20:09;15.30;99.90
8408;DHT22;4241;48.452;9.216;2022-10-16T00:22:35;15.20;99.90
8408;DHT22;4241;48.452;9.216;2022-10-16T00:25:03;15.10;99.90
8408;DHT22;4241;48.452;9.216;2022-10-16T00:27:29;15.10;99.90
8408;DHT22;4241;48.452;9.216;2022-10-16T00:29:56;15.00;99.90
8408;DHT22;4241;48.452;9.216;2022-10-16T00:32:24;15.00;99.90
8408;DHT22;4241;48.452;9.216;2022-10-16T00:34:51;15.10;99.90
8408;DHT22;4241;48.452;9.216;2022-10-16T00:37:19;15.20;99.90
8408;DHT22;4241;48.452;9.216;2022-10-16T00:39:46;15.20;99.90
8408;DHT22;4241;48.452;9.216;2022-10-16T00:42:15;15.20;99.90
8408;DHT22;4241;48.452;9.216;2022-10-16T00:44:45;15.30;99.90
8408;DHT22;4241;48.452;9.216;2022-10-16T00:47:17;15.10;99.90
8408;DHT22;4241;48.452;9.216;2022-10-16T00:49:48;14.90;99.90
8408;DHT22;4241;48.452;9.216;2022-10-16T00:52:16;15.00;99.90
8408;DHT22;4241;48.452;9.216;2022-10-16T00:54:44;14.90;99.90
8408;DHT22;4241;48.452;9.216;2022-10-16T00:57:12;14.90;99.90
8408;DHT22;4241;48.452;9.216;2022-10-16T00:59:43;14.80;99.90
8408;DHT22;4241;48.452;9.216;2022-10-16T01:02:12;14.70;99.90
8408;DHT22;4241;48.452;9.216;2022-10-16T01:04:41;14.70;99.90
8408;DHT22;4241;48.452;9.216;2022-10-16T01:07:14;14.70;99.90
8408;DHT22;4241;48.452;9.216;2022-10-16T01:09:57;14.70;99.90
8408;DHT22;4241;48.452;9.216;2022-10-16T01:12:35;14.70;99.90
8408;DHT22;4241;48.452;9.216;2022-10-16T01:15:08;14.60;99.90
8408;DHT22;4241;48.452;9.216;2022-10-16T01:17:42;14.60;99.90
8408;DHT22;4241;48.452;9.216;2022-10-16T01:20:15;14.60;99.90
8408;DHT22;4241;48.452;9.216;2022-10-16T01:23:02;14.60;99.90
8408;DHT22;4241;48.452;9.216;2022-10-16T01:25:45;14.60;99.90
8408;DHT22;4241;48.452;9.216;2022-10-16T01:28:19;14.70;99.90
8408;DHT22;4241;48.452;9.216;2022-10-16T01:30:52;14.70;99.90
8408;DHT22;4241;48.452;9.216;2022-10-16T01:33:22;14.70;99.90
8408;DHT22;4241;48.452;9.216;2022-10-16T01:35:53;14.60;99.90
8408;DHT22;4241;48.452;9.216;2022-10-16T01:38:23;14.60;99.90
8408;DHT22;4241;48.452;9.216;2022-10-16T01:40:56;14.50;99.90
8408;DHT22;4241;48.452;9.216;2022-10-16T01:43:31;14.50;99.90
8408;DHT22;4241;48.452;9.216;2022-10-16T01:46:00;14.50;99.90
8408;DHT22;4241;48.452;9.216;2022-10-16T01:48:29;14.50;99.90
8408;DHT22;4241;48.452;9.216;2022-10-16T01:51:00;14.50;99.90
8408;DHT22;4241;48.452;9.216;2022-10-16T01:53:30;14.60;99.90
8408;DHT22;4241;48.452;9.216;2022-10-16T01:55:59;14.60;99.90
8408;DHT22;4241;48.452;9.216;2022-10-16T01:58:29;14.60;99.90
8408;DHT22;4241;48.452;9.216;2022-10-16T02:01:00;14.60;99.90
8408;DHT22;4241;48.452;9.216;2022-10-16T02:03:28;14.60;99.90
8408;DHT22;4241;48.452;9.216;2022-10-16T02:05:56;14.70;99.90
8408;DHT22;4241;48.452;9.216;2022-10-16T02:08:28;14.70;99.90
8408;DHT22;4241;48.452;9.216;2022-10-16T02:10:56;14.60;99.90
8408;DHT22;4241;48.452;9.216;2022-10-16T02:13:28;14.60;99.90
8408;DHT22;4241;48.452;9.216;2022-10-16T02:15:56;14.60;99.90
8408;DHT22;4241;48.452;9.216;2022-10-16T02:18:23;14.60;99.90
8408;DHT22;4241;48.452;9.216;2022-10-16T02:20:57;14.50;99.90
8408;DHT22;4241;48.452;9.216;2022-10-16T02:23:33;14.50;99.90
8408;DHT22;4241;48.452;9.216;2022-10-16T02:26:03;14.60;99.90
8408;DHT22;4241;48.452;9.216;2022-10-16T02:28:37;14.60;99.90
8408;DHT22;4241;48.452;9.216;2022-10-16T02:31:08;14.70;99.90
8408;DHT22;4241;48.452;9.216;2022-10-16T02:33:37;14.70;99.90
8408;DHT22;4241;48.452;9.216;2022-10-16T02:36:05;14.70;99.90
8408;DHT22;4241;48.452;9.216;2022-10-16T02:38:33;14.60;99.90
8408;DHT22;4241;48.452;9.216;2022-10-16T02:41:00;14.60;99.90
8408;DHT22;4241;48.452;9.216;2022-10-16T02:43:27;14.60;99.90
8408;DHT22;4241;48.452;9.216;2022-10-16T02:48:23;14.80;99.90
8408;DHT22;4241;48.452;9.216;2022-10-16T02:50:50;14.90;99.90
8408;DHT22;4241;48.452;9.216;2022-10-16T02:53:16;15.00;99.90
8408;DHT22;4241;48.452;9.216;2022-10-16T02:55:43;15.20;99.90
8408;DHT22;4241;48.452;9.216;2022-10-16T02:58:10;15.40;99.90
8408;DHT22;4241;48.452;9.216;2022-10-16T03:00:37;15.50;99.90
8408;DHT22;4241;48.452;9.216;2022-10-16T03:03:05;15.40;99.90
8408;DHT22;4241;48.452;9.216;2022-10-16T03:05:32;15.50;99.90
8408;DHT22;4241;48.452;9.216;2022-10-16T03:07:59;15.60;99.90
8408;DHT22;4241;48.452;9.216;2022-10-16T03:10:26;15.50;99.90
8408;DHT22;4241;48.452;9.216;2022-10-16T03:12:53;15.40;99.90
8408;DHT22;4241;48.452;9.216;2022-10-16T03:15:19;15.40;99.90
8408;DHT22;4241;48.452;9.216;2022-10-16T03:17:46;15.30;99.90
8408;DHT22;4241;48.452;9.216;2022-10-16T03:20:15;15.60;99.90
8408;DHT22;4241;48.452;9.216;2022-10-16T03:22:42;15.60;99.90
8408;DHT22;4241;48.452;9.216;2022-10-16T03:25:09;15.50;99.90
8408;DHT22;4241;48.452;9.216;2022-10-16T03:27:36;15.60;99.90
8408;DHT22;4241;48.452;9.216;2022-10-16T03:30:03;15.40;99.90
8408;DHT22;4241;48.452;9.216;2022-10-16T03:32:30;15.30;99.90
8408;DHT22;4241;48.452;9.216;2022-10-16T03:34:56;15.30;99.90
8408;DHT22;4241;48.452;9.216;2022-10-16T03:37:25;15.30;99.90
8408;DHT22;4241;48.452;9.216;2022-10-16T03:39:51;15.30;99.90
8408;DHT22;4241;48.452;9.216;2022-10-16T03:42:18;15.20;99.90
8408;DHT22;4241;48.452;9.216;2022-10-16T03:44:45;15.10;99.90
8408;DHT22;4241;48.452;9.216;2022-10-16T03:47:12;15.00;99.90
8408;DHT22;4241;48.452;9.216;2022-10-16T03:49:39;15.10;99.90
8408;DHT22;4241;48.452;9.216;2022-10-16T03:54:34;15.50;99.90
8408;DHT22;4241;48.452;9.216;2022-10-16T03:57:01;15.50;99.90
8408;DHT22;4241;48.452;9.216;2022-10-16T03:59:27;15.70;99.90
8408;DHT22;4241;48.452;9.216;2022-10-16T04:01:54;15.70;99.90
8408;DHT22;4241;48.452;9.216;2022-10-16T04:04:21;15.50;99.90
8408;DHT22;4241;48.452;9.216;2022-10-16T04:06:48;15.80;99.90
8408;DHT22;4241;48.452;9.216;2022-10-16T04:09:14;15.90;99.90
8408;DHT22;4241;48.452;9.216;2022-10-16T04:11:42;16.20;99.90
8408;DHT22;4241;48.452;9.216;2022-10-16T04:14:09;16.00;99.90
8408;DHT22;4241;48.452;9.216;2022-10-16T04:16:36;15.90;99.90
8408;DHT22;4241;48.452;9.216;2022-10-16T04:19:03;15.70;99.90
8408;DHT22;4241;48.452;9.216;2022-10-16T04:21:30;15.80;99.90
8408;DHT22;4241;48.452;9.216;2022-10-16T04:23:56;15.80;99.90
8408;DHT22;4241;48.452;9.216;2022-10-16T04:28:51;16.10;99.90
8408;DHT22;4241;48.452;9.216;2022-10-16T04:31:19;16.10;99.90
8408;DHT22;4241;48.452;9.216;2022-10-16T04:33:46;16.20;99.90
8408;DHT22;4241;48.452;9.216;2022-10-16T04:36:13;16.10;99.90
8408;DHT22;4241;48.452;9.216;2022-10-16T04:38:40;16.00;99.90
8408;DHT22;4241;48.452;9.216;2022-10-16T04:41:07;16.00;99.90
8408;DHT22;4241;48.452;9.216;2022-10-16T04:43:34;16.10;99.90
8408;DHT22;4241;48.452;9.216;2022-10-16T04:46:03;16.00;99.90
8408;DHT22;4241;48.452;9.216;2022-10-16T04:48:30;16.30;99.90
8408;DHT22;4241;48.452;9.216;2022-10-16T04:51:00;16.20;99.90
8408;DHT22;4241;48.452;9.216;2022-10-16T04:53:26;16.30;99.90
8408;DHT22;4241;48.452;9.216;2022-10-16T04:55:53;16.20;99.90
8408;DHT22;4241;48.452;9.216;2022-10-16T04:58:21;16.00;99.90
8408;DHT22;4241;48.452;9.216;2022-10-16T05:00:48;16.00;99.90
8408;DHT22;4241;48.452;9.216;2022-10-16T05:03:16;16.00;99.90
8408;DHT22;4241;48.452;9.216;2022-10-16T05:05:43;16.10;99.90
8408;DHT22;4241;48.452;9.216;2022-10-16T05:08:10;16.30;99.90
8408;DHT22;4241;48.452;9.216;2022-10-16T05:10:37;16.20;99.90
8408;DHT22;4241;48.452;9.216;2022-10-16T05:13:04;16.20;99.90
8408;DHT22;4241;48.452;9.216;2022-10-16T05:15:31;16.30;99.90
8408;DHT22;4241;48.452;9.216;2022-10-16T05:17:57;16.40;99.90
8408;DHT22;4241;48.452;9.216;2022-10-16T05:22:53;16.10;99.90
8408;DHT22;4241;48.452;9.216;2022-10-16T05:25:20;16.20;99.90
8408;DHT22;4241;48.452;9.216;2022-10-16T05:27:47;16.20;99.90
8408;DHT22;4241;48.452;9.216;2022-10-16T05:30:15;16.20;99.90
8408;DHT22;4241;48.452;9.216;2022-10-16T05:32:45;16.20;99.90
8408;DHT22;4241;48.452;9.216;2022-10-16T05:35:12;16.10;99.90
8408;DHT22;4241;48.452;9.216;2022-10-16T05:37:40;16.10;99.90
8408;DHT22;4241;48.452;9.216;2022-10-16T05:40:08;16.20;99.90
8408;DHT22;4241;48.452;9.216;2022-10-16T05:42:35;16.00;99.90
8408;DHT22;4241;48.452;9.216;2022-10-16T05:45:03;16.10;99.90
8408;DHT22;4241;48.452;9.216;2022-10-16T05:47:30;15.90;99.90
8408;DHT22;4241;48.452;9.216;2022-10-16T05:49:57;16.00;99.90
8408;DHT22;4241;48.452;9.216;2022-10-16T05:52:24;16.00;99.90
8408;DHT22;4241;48.452;9.216;2022-10-16T05:54:52;15.90;99.90
8408;DHT22;4241;48.452;9.216;2022-10-16T05:57:19;15.90;99.90
8408;DHT22;4241;48.452;9.216;2022-10-16T05:59:46;15.90;99.90
8408;DHT22;4241;48.452;9.216;2022-10-16T06:02:13;15.80;99.90
8408;DHT22;4241;48.452;9.216;2022-10-16T06:04:40;15.80;99.90
8408;DHT22;4241;48.452;9.216;2022-10-16T06:07:07;15.80;99.90
8408;DHT22;4241;48.452;9.216;2022-10-16T06:09:34;15.70;99.90
8408;DHT22;4241;48.452;9.216;2022-10-16T06:12:02;15.50;99.90
8408;DHT22;4241;48.452;9.216;2022-10-16T06:14:29;15.50;99.90
8408;DHT22;4241;48.452;9.216;2022-10-16T06:16:56;15.30;99.90
8408;DHT22;4241;48.452;9.216;2022-10-16T06:19:23;15.30;99.90
8408;DHT22;4241;48.452;9.216;2022-10-16T06:21:49;15.20;99.90
8408;DHT22;4241;48.452;9.216;2022-10-16T06:24:16;15.20;99.90
8408;DHT22;4241;48.452;9.216;2022-10-16T06:26:43;15.20;99.90
8408;DHT22;4241;48.452;9.216;2022-10-16T06:29:11;15.20;99.90
8408;DHT22;4241;48.452;9.216;2022-10-16T06:31:38;15.20;99.90
8408;DHT22;4241;48.452;9.216;2022-10-16T06:34:05;15.20;99.90
8408;DHT22;4241;48.452;9.216;2022-10-16T06:36:35;15.20;99.90
8408;DHT22;4241;48.452;9.216;2022-10-16T06:39:02;15.20;99.90
8408;DHT22;4241;48.452;9.216;2022-10-16T06:41:29;15.20;99.90
8408;DHT22;4241;48.452;9.216;2022-10-16T06:43:55;15.30;99.90
8408;DHT22;4241;48.452;9.216;2022-10-16T06:46:25;15.30;99.90
8408;DHT22;4241;48.452;9.216;2022-10-16T06:48:52;15.40;99.90
8408;DHT22;4241;48.452;9.216;2022-10-16T06:51:21;15.50;99.90
8408;DHT22;4241;48.452;9.216;2022-10-16T06:53:49;15.50;99.90
8408;DHT22;4241;48.452;9.216;2022-10-16T06:56:19;15.60;99.90
8408;DHT22;4241;48.452;9.216;2022-10-16T06:58:46;15.70;99.90
8408;DHT22;4241;48.452;9.216;2022-10-16T07:01:15;15.80;99.90
8408;DHT22;4241;48.452;9.216;2022-10-16T07:03:45;15.80;99.90
8408;DHT22;4241;48.452;9.216;2022-10-16T07:06:13;15.80;99.90
8408;DHT22;4241;48.452;9.216;2022-10-16T07:08:41;15.80;99.90
8408;DHT22;4241;48.452;9.216;2022-10-16T07:11:10;15.90;99.90
8408;DHT22;4241;48.452;9.216;2022-10-16T07:13:38;15.90;99.90
8408;DHT22;4241;48.452;9.216;2022-10-16T07:16:07;15.90;99.90
8408;DHT22;4241;48.452;9.216;2022-10-16T07:18:34;16.00;99.90
8408;DHT22;4241;48.452;9.216;2022-10-16T07:21:07;16.00;99.90
8408;DHT22;4241;48.452;9.216;2022-10-16T07:23:34;16.00;99.90
8408;DHT22;4241;48.452;9.216;2022-10-16T07:26:01;16.10;99.90
8408;DHT22;4241;48.452;9.216;2022-10-16T07:28:28;16.20;99.90
8408;DHT22;4241;48.452;9.216;2022-10-16T07:30:55;16.40;99.90
8408;DHT22;4241;48.452;9.216;2022-10-16T07:33:22;16.50;99.90
8408;DHT22;4241;48.452;9.216;2022-10-16T07:35:50;16.50;99.90
8408;DHT22;4241;48.452;9.216;2022-10-16T07:38:19;16.40;99.90
8408;DHT22;4241;48.452;9.216;2022-10-16T07:40:46;16.50;99.90
8408;DHT22;4241;48.452;9.216;2022-10-16T07:43:13;16.40;99.90
8408;DHT22;4241;48.452;9.216;2022-10-16T07:45:47;16.40;99.90
8408;DHT22;4241;48.452;9.216;2022-10-16T07:48:14;16.40;99.90
8408;DHT22;4241;48.452;9.216;2022-10-16T07:50:41;16.40;99.90
8408;DHT22;4241;48.452;9.216;2022-10-16T07:53:08;16.50;99.90
8408;DHT22;4241;48.452;9.216;2022-10-16T07:55:37;16.60;99.90
8408;DHT22;4241;48.452;9.216;2022-10-16T07:58:04;16.70;99.90
8408;DHT22;4241;48.452;9.216;2022-10-16T08:00:31;16.70;99.90
8408;DHT22;4241;48.452;9.216;2022-10-16T08:02:58;16.90;99.90
8408;DHT22;4241;48.452;9.216;2022-10-16T08:05:26;17.00;99.90
8408;DHT22;4241;48.452;9.216;2022-10-16T08:07:53;17.10;99.90
8408;DHT22;4241;48.452;9.216;2022-10-16T08:10:22;17.20;99.90
8408;DHT22;4241;48.452;9.216;2022-10-16T08:12:51;17.30;99.90
8408;DHT22;4241;48.452;9.216;2022-10-16T08:15:18;17.40;99.90
8408;DHT22;4241;48.452;9.216;2022-10-16T08:17:54;17.50;99.90
8408;DHT22;4241;48.452;9.216;2022-10-16T08:20:21;17.60;99.90
8408;DHT22;4241;48.452;9.216;2022-10-16T08:22:48;17.70;99.90
8408;DHT22;4241;48.452;9.216;2022-10-16T08:25:14;17.80;99.90
8408;DHT22;4241;48.452;9.216;2022-10-16T08:30:12;16.90;99.90
8408;DHT22;4241;48.452;9.216;2022-10-16T08:32:39;18.10;99.90
8408;DHT22;4241;48.452;9.216;2022-10-16T08:35:07;18.20;99.90
8408;DHT22;4241;48.452;9.216;2022-10-16T08:37:35;18.20;99.90
8408;DHT22;4241;48.452;9.216;2022-10-16T08:40:02;18.30;99.90
8408;DHT22;4241;48.452;9.216;2022-10-16T08:42:38;18.50;99.90
8408;DHT22;4241;48.452;9.216;2022-10-16T08:45:21;18.70;99.90
8408;DHT22;4241;48.452;9.216;2022-10-16T08:48:00;18.70;99.90
8408;DHT22;4241;48.452;9.216;2022-10-16T08:50:30;18.60;99.90
8408;DHT22;4241;48.452;9.216;2022-10-16T08:52:58;18.70;99.90
8408;DHT22;4241;48.452;9.216;2022-10-16T08:55:31;18.70;99.90
8408;DHT22;4241;48.452;9.216;2022-10-16T08:57:59;18.90;99.90
8408;DHT22;4241;48.452;9.216;2022-10-16T09:00:28;18.90;99.90
8408;DHT22;4241;48.452;9.216;2022-10-16T09:03:03;19.00;99.90
8408;DHT22;4241;48.452;9.216;2022-10-16T09:05:52;19.10;99.90
8408;DHT22;4241;48.452;9.216;2022-10-16T09:08:28;19.20;99.90
8408;DHT22;4241;48.452;9.216;2022-10-16T09:10:59;19.50;99.90
8408;DHT22;4241;48.452;9.216;2022-10-16T09:13:35;19.70;99.90
8408;DHT22;4241;48.452;9.216;2022-10-16T09:16:16;19.80;99.90
8408;DHT22;4241;48.452;9.216;2022-10-16T09:18:50;19.80;99.90
8408;DHT22;4241;48.452;9.216;2022-10-16T09:21:21;19.90;99.90
8408;DHT22;4241;48.452;9.216;2022-10-16T09:23:49;20.30;99.90
8408;DHT22;4241;48.452;9.216;2022-10-16T09:26:17;20.20;99.90
8408;DHT22;4241;48.452;9.216;2022-10-16T09:28:45;20.10;99.90
8408;DHT22;4241;48.452;9.216;2022-10-16T09:31:20;20.00;99.90
8408;DHT22;4241;48.452;9.216;2022-10-16T09:33:51;19.90;99.90
8408;DHT22;4241;48.452;9.216;2022-10-16T09:36:20;19.90;99.90
8408;DHT22;4241;48.452;9.216;2022-10-16T09:41:17;20.10;99.90
8408;DHT22;4241;48.452;9.216;2022-10-16T09:43:49;20.10;99.90
8408;DHT22;4241;48.452;9.216;2022-10-16T09:46:25;20.10;99.90
8408;DHT22;4241;48.452;9.216;2022-10-16T09:48:54;20.10;99.90
8408;DHT22;4241;48.452;9.216;2022-10-16T09:51:27;20.20;99.90
8408;DHT22;4241;48.452;9.216;2022-10-16T09:53:57;20.20;99.90
8408;DHT22;4241;48.452;9.216;2022-10-16T09:56:25;20.20;99.90
8408;DHT22;4241;48.452;9.216;2022-10-16T09:58:54;20.20;99.90
8408;DHT22;4241;48.452;9.216;2022-10-16T10:01:28;20.30;99.90
8408;DHT22;4241;48.452;9.216;2022-10-16T10:03:56;20.30;99.90
8408;DHT22;4241;48.452;9.216;2022-10-16T10:06:28;20.30;99.90
8408;DHT22;4241;48.452;9.216;2022-10-16T10:09:00;20.30;99.90
8408;DHT22;4241;48.452;9.216;2022-10-16T10:11:53;20.30;99.90
8408;DHT22;4241;48.452;9.216;2022-10-16T10:14:23;20.40;99.90
8408;DHT22;4241;48.452;9.216;2022-10-16T10:17:01;20.10;99.90
8408;DHT22;4241;48.452;9.216;2022-10-16T10:19:28;20.10;99.90
8408;DHT22;4241;48.452;9.216;2022-10-16T10:21:54;20.10;99.90
8408;DHT22;4241;48.452;9.216;2022-10-16T10:24:21;20.10;99.90
8408;DHT22;4241;48.452;9.216;2022-10-16T10:26:53;20.10;99.90
8408;DHT22;4241;48.452;9.216;2022-10-16T10:29:31;20.10;99.90
8408;DHT22;4241;48.452;9.216;2022-10-16T10:32:12;20.10;99.90
8408;DHT22;4241;48.452;9.216;2022-10-16T10:34:52;20.00;99.90
8408;DHT22;4241;48.452;9.216;2022-10-16T10:37:36;20.50;99.90
8408;DHT22;4241;48.452;9.216;2022-10-16T10:40:15;21.30;99.90
8408;DHT22;4241;48.452;9.216;2022-10-16T10:42:47;22.20;99.90
8408;DHT22;4241;48.452;9.216;2022-10-16T10:45:25;22.20;99.90
8408;DHT22;4241;48.452;9.216;2022-10-16T10:48:15;22.50;99.90
8408;DHT22;4241;48.452;9.216;2022-10-16T10:50:49;22.80;99.90
8408;DHT22;4241;48.452;9.216;2022-10-16T10:53:24;22.80;99.90
8408;DHT22;4241;48.452;9.216;2022-10-16T10:56:00;23.10;99.90
8408;DHT22;4241;48.452;9.216;2022-10-16T10:58:53;23.20;99.90
8408;DHT22;4241;48.452;9.216;2022-10-16T11:01:29;23.20;99.90
8408;DHT22;4241;48.452;9.216;2022-10-16T11:04:12;23.20;99.90
8408;DHT22;4241;48.452;9.216;2022-10-16T11:06:46;23.20;99.90
8408;DHT22;4241;48.452;9.216;2022-10-16T11:09:17;23.30;99.90
8408;DHT22;4241;48.452;9.216;2022-10-16T11:11:47;23.50;99.90
8408;DHT22;4241;48.452;9.216;2022-10-16T11:14:19;23.40;99.90
8408;DHT22;4241;48.452;9.216;2022-10-16T11:16:51;23.40;99.90
8408;DHT22;4241;48.452;9.216;2022-10-16T11:19:29;23.50;99.90
8408;DHT22;4241;48.452;9.216;2022-10-16T11:22:04;23.80;99.90
8408;DHT22;4241;48.452;9.216;2022-10-16T11:24:40;24.00;99.90
8408;DHT22;4241;48.452;9.216;2022-10-16T11:27:11;23.70;99.90
8408;DHT22;4241;48.452;9.216;2022-10-16T11:29:45;23.70;99.90
8408;DHT22;4241;48.452;9.216;2022-10-16T11:32:19;23.60;99.90
8408;DHT22;4241;48.452;9.216;2022-10-16T11:34:51;23.60;99.90
8408;DHT22;4241;48.452;9.216;2022-10-16T11:37:21;23.60;99.90
8408;DHT22;4241;48.452;9.216;2022-10-16T11:39:50;23.50;99.90
8408;DHT22;4241;48.452;9.216;2022-10-16T11:42:21;23.10;99.90
8408;DHT22;4241;48.452;9.216;2022-10-16T11:44:57;22.80;99.90
8408;DHT22;4241;48.452;9.216;2022-10-16T11:47:31;22.50;99.90
8408;DHT22;4241;48.452;9.216;2022-10-16T11:50:03;22.40;99.90
8408;DHT22;4241;48.452;9.216;2022-10-16T11:52:38;22.40;99.90
8408;DHT22;4241;48.452;9.216;2022-10-16T11:55:14;22.50;99.90
8408;DHT22;4241;48.452;9.216;2022-10-16T11:57:45;23.00;99.90
8408;DHT22;4241;48.452;9.216;2022-10-16T12:00:21;23.00;99.90
8408;DHT22;4241;48.452;9.216;2022-10-16T12:02:58;22.80;99.90
8408;DHT22;4241;48.452;9.216;2022-10-16T12:05:35;22.80;99.90
8408;DHT22;4241;48.452;9.216;2022-10-16T12:08:09;22.60;99.90
8408;DHT22;4241;48.452;9.216;2022-10-16T12:10:38;22.70;99.90
8408;DHT22;4241;48.452;9.216;2022-10-16T12:13:29;22.60;99.90
8408;DHT22;4241;48.452;9.216;2022-10-16T12:16:08;22.50;99.90
8408;DHT22;4241;48.452;9.216;2022-10-16T12:18:47;22.40;99.90
8408;DHT22;4241;48.452;9.216;2022-10-16T12:21:16;22.30;99.90
8408;DHT22;4241;48.452;9.216;2022-10-16T12:23:49;22.20;99.90
8408;DHT22;4241;48.452;9.216;2022-10-16T12:26:24;22.20;99.90
8408;DHT22;4241;48.452;9.216;2022-10-16T12:28:51;22.10;99.90
8408;DHT22;4241;48.452;9.216;2022-10-16T12:31:18;22.20;99.90
8408;DHT22;4241;48.452;9.216;2022-10-16T12:33:56;22.20;99.90
8408;DHT22;4241;48.452;9.216;2022-10-16T12:36:30;22.20;99.90
8408;DHT22;4241;48.452;9.216;2022-10-16T12:38:59;22.40;99.90
8408;DHT22;4241;48.452;9.216;2022-10-16T12:41:28;22.40;99.90
8408;DHT22;4241;48.452;9.216;2022-10-16T12:43:55;22.40;99.90
8408;DHT22;4241;48.452;9.216;2022-10-16T12:46:33;22.40;99.90
8408;DHT22;4241;48.452;9.216;2022-10-16T12:49:29;22.40;99.90
8408;DHT22;4241;48.452;9.216;2022-10-16T12:51:58;22.40;99.90
8408;DHT22;4241;48.452;9.216;2022-10-16T12:54:28;22.20;99.90
8408;DHT22;4241;48.452;9.216;2022-10-16T12:57:08;22.10;99.90
8408;DHT22;4241;48.452;9.216;2022-10-16T12:59:43;22.10;99.90
8408;DHT22;4241;48.452;9.216;2022-10-16T13:05:21;22.10;99.90
8408;DHT22;4241;48.452;9.216;2022-10-16T13:07:59;22.10;99.90
8408;DHT22;4241;48.452;9.216;2022-10-16T13:10:35;22.10;99.90
8408;DHT22;4241;48.452;9.216;2022-10-16T13:13:26;22.10;99.90
8408;DHT22;4241;48.452;9.216;2022-10-16T13:16:11;22.10;99.90
8408;DHT22;4241;48.452;9.216;2022-10-16T13:18:47;22.00;99.90
8408;DHT22;4241;48.452;9.216;2022-10-16T13:21:31;22.00;99.90
8408;DHT22;4241;48.452;9.216;2022-10-16T13:24:11;22.00;99.90
8408;DHT22;4241;48.452;9.216;2022-10-16T13:26:44;22.00;99.90
8408;DHT22;4241;48.452;9.216;2022-10-16T13:29:13;22.00;99.90
8408;DHT22;4241;48.452;9.216;2022-10-16T13:31:40;21.80;99.90
8408;DHT22;4241;48.452;9.216;2022-10-16T13:34:14;21.90;99.90
8408;DHT22;4241;48.452;9.216;2022-10-16T13:36:44;21.90;99.90
8408;DHT22;4241;48.452;9.216;2022-10-16T13:39:14;21.90;99.90
8408;DHT22;4241;48.452;9.216;2022-10-16T13:41:43;21.90;99.90
8408;DHT22;4241;48.452;9.216;2022-10-16T13:44:14;21.80;99.90
8408;DHT22;4241;48.452;9.216;2022-10-16T13:46:42;21.90;99.90
8408;DHT22;4241;48.452;9.216;2022-10-16T13:49:13;21.80;99.90
8408;DHT22;4241;48.452;9.216;2022-10-16T13:51:40;21.80;99.90
8408;DHT22;4241;48.452;9.216;2022-10-16T13:54:09;21.90;99.90
8408;DHT22;4241;48.452;9.216;2022-10-16T13:56:39;21.90;99.90
8408;DHT22;4241;48.452;9.216;2022-10-16T13:59:23;21.90;99.90
8408;DHT22;4241;48.452;9.216;2022-10-16T14:01:51;21.90;99.90
8408;DHT22;4241;48.452;9.216;2022-10-16T14:06:50;21.70;99.90
8408;DHT22;4241;48.452;9.216;2022-10-16T14:09:22;21.70;99.90
8408;DHT22;4241;48.452;9.216;2022-10-16T14:11:53;21.70;99.90
8408;DHT22;4241;48.452;9.216;2022-10-16T14:14:21;21.80;99.90
8408;DHT22;4241;48.452;9.216;2022-10-16T14:16:48;21.90;99.90
8408;DHT22;4241;48.452;9.216;2022-10-16T14:19:20;21.90;99.90
8408;DHT22;4241;48.452;9.216;2022-10-16T14:24:26;21.90;99.90
8408;DHT22;4241;48.452;9.216;2022-10-16T14:26:54;22.40;99.90
8408;DHT22;4241;48.452;9.216;2022-10-16T14:29:23;21.60;99.90
8408;DHT22;4241;48.452;9.216;2022-10-16T14:31:58;21.60;99.90
8408;DHT22;4241;48.452;9.216;2022-10-16T14:34:27;21.60;99.90
8408;DHT22;4241;48.452;9.216;2022-10-16T14:36:56;21.60;99.90
8408;DHT22;4241;48.452;9.216;2022-10-16T14:39:24;21.50;99.90
8408;DHT22;4241;48.452;9.216;2022-10-16T14:41:55;21.50;99.90
8408;DHT22;4241;48.452;9.216;2022-10-16T14:44:27;21.60;99.90
8408;DHT22;4241;48.452;9.216;2022-10-16T14:46:54;21.60;99.90
8408;DHT22;4241;48.452;9.216;2022-10-16T14:49:22;21.60;99.90
8408;DHT22;4241;48.452;9.216;2022-10-16T14:54:18;21.60;99.90
8408;DHT22;4241;48.452;9.216;2022-10-16T14:56:48;21.60;99.90
8408;DHT22;4241;48.452;9.216;2022-10-16T14:59:19;21.50;99.90
8408;DHT22;4241;48.452;9.216;2022-10-16T15:01:48;21.40;99.90
8408;DHT22;4241;48.452;9.216;2022-10-16T15:04:14;21.30;99.90
8408;DHT22;4241;48.452;9.216;2022-10-16T15:06:42;21.40;99.90
8408;DHT22;4241;48.452;9.216;2022-10-16T15:09:09;21.40;99.90
8408;DHT22;4241;48.452;9.216;2022-10-16T15:11:36;21.30;99.90
8408;DHT22;4241;48.452;9.216;2022-10-16T15:14:03;21.30;99.90
8408;DHT22;4241;48.452;9.216;2022-10-16T15:16:31;21.30;99.90
8408;DHT22;4241;48.452;9.216;2022-10-16T15:18:58;21.20;99.90
8408;DHT22;4241;48.452;9.216;2022-10-16T15:21:26;21.10;99.90
8408;DHT22;4241;48.452;9.216;2022-10-16T15:23:53;21.00;99.90
8408;DHT22;4241;48.452;9.216;2022-10-16T15:26:22;21.00;99.90
8408;DHT22;4241;48.452;9.216;2022-10-16T15:28:49;21.00;99.90
8408;DHT22;4241;48.452;9.216;2022-10-16T15:31:15;21.00;99.90
8408;DHT22;4241;48.452;9.216;2022-10-16T15:33:44;20.90;99.90
8408;DHT22;4241;48.452;9.216;2022-10-16T15:36:24;20.90;99.90
8408;DHT22;4241;48.452;9.216;2022-10-16T15:38:51;20.80;99.90
8408;DHT22;4241;48.452;9.216;2022-10-16T15:41:19;20.80;99.90
8408;DHT22;4241;48.452;9.216;2022-10-16T15:43:48;20.90;99.90
8408;DHT22;4241;48.452;9.216;2022-10-16T15:46:17;20.90;99.90
8408;DHT22;4241;48.452;9.216;2022-10-16T15:48:45;20.90;99.90
8408;DHT22;4241;48.452;9.216;2022-10-16T15:51:12;20.80;99.90
8408;DHT22;4241;48.452;9.216;2022-10-16T15:53:39;20.90;99.90
8408;DHT22;4241;48.452;9.216;2022-10-16T15:56:08;20.90;99.90
8408;DHT22;4241;48.452;9.216;2022-10-16T15:58:35;20.90;99.90
8408;DHT22;4241;48.452;9.216;2022-10-16T16:01:02;20.80;99.90
8408;DHT22;4241;48.452;9.216;2022-10-16T16:03:30;20.80;99.90
8408;DHT22;4241;48.452;9.216;2022-10-16T16:06:03;20.80;99.90
8408;DHT22;4241;48.452;9.216;2022-10-16T16:08:30;20.60;99.90
8408;DHT22;4241;48.452;9.216;2022-10-16T16:10:58;20.60;99.90
8408;DHT22;4241;48.452;9.216;2022-10-16T16:13:25;20.40;99.90
8408;DHT22;4241;48.452;9.216;2022-10-16T16:15:52;20.30;99.90
8408;DHT22;4241;48.452;9.216;2022-10-16T16:18:18;20.10;99.90
8408;DHT22;4241;48.452;9.216;2022-10-16T16:20:45;19.90;99.90
8408;DHT22;4241;48.452;9.216;2022-10-16T16:23:13;19.80;99.90
8408;DHT22;4241;48.452;9.216;2022-10-16T16:25:40;19.70;99.90
8408;DHT22;4241;48.452;9.216;2022-10-16T16:28:07;19.70;99.90
8408;DHT22;4241;48.452;9.216;2022-10-16T16:30:36;19.70;99.90
8408;DHT22;4241;48.452;9.216;2022-10-16T16:33:03;19.60;99.90
8408;DHT22;4241;48.452;9.216;2022-10-16T16:35:30;19.50;99.90
8408;DHT22;4241;48.452;9.216;2022-10-16T16:37:56;19.20;99.90
8408;DHT22;4241;48.452;9.216;2022-10-16T16:40:25;19.20;99.90
8408;DHT22;4241;48.452;9.216;2022-10-16T16:42:52;19.10;99.90
8408;DHT22;4241;48.452;9.216;2022-10-16T16:45:19;19.00;99.90